Time;durP1;ratioP1;P1;durP2;ratioP2;P2;SDS_P1;SDS_P2;PMS_P1;PMS_P2;Temp;Humidity;BMP_temperature;BMP_pressure;BME280_temperature;BME280_humidity;BME280_pressure;Samples;Min_cycle;Max_cycle;Signal;HPM_P1;HPM_P2
2022/08/04 00:02:23;;;;;;;;;1.75;0.50;;;;;28.96;41.20;100978.84;4921820;28;45387;-59
2022/08/04 00:04:54;;;;;;;;;2.25;2.00;;;;;28.96;41.07;100976.13;4921182;28;45327;-59
2022/08/04 00:07:38;;;;;;;;;1.50;1.00;;;;;28.95;41.18;100979.06;4923825;28;45302;-59
2022/08/04 00:10:05;;;;;;;;;2.00;1.25;;;;;28.91;40.63;100979.47;4924030;28;45412;-59
2022/08/04 00:12:34;;;;;;;;;0.00;0.00;;;;;28.88;40.87;100977.13;4924076;28;45407;-60
2022/08/04 00:15:02;;;;;;;;;0.50;0.00;;;;;28.86;40.68;100978.38;4923290;28;45360;-59
2022/08/04 00:17:31;;;;;;;;;0.50;0.00;;;;;28.86;40.89;100972.97;4923968;28;45271;-59
2022/08/04 00:20:02;;;;;;;;;1.50;0.25;;;;;28.83;40.65;100974.19;4924318;28;45330;-60
2022/08/04 00:22:30;;;;;;;;;1.50;0.25;;;;;28.82;41.24;100974.41;4923274;28;46061;-59
2022/08/04 00:24:57;;;;;;;;;2.25;1.75;;;;;28.79;41.31;100977.53;4923623;28;45294;-58
2022/08/04 00:27:23;;;;;;;;;1.00;1.00;;;;;28.76;41.10;100983.38;4923788;28;45369;-59
2022/08/04 00:29:48;;;;;;;;;2.00;0.00;;;;;28.73;41.64;100979.16;4923723;28;45330;-59
2022/08/04 00:32:17;;;;;;;;;1.00;1.00;;;;;28.68;41.20;100989.81;4920958;28;45359;-59
2022/08/04 00:34:43;;;;;;;;;0.00;0.00;;;;;28.66;41.38;100983.72;4923728;28;45254;-59
2022/08/04 00:37:09;;;;;;;;;1.25;1.25;;;;;28.63;41.51;100979.56;4923501;28;45315;-60
2022/08/04 00:39:35;;;;;;;;;1.00;0.00;;;;;28.63;41.48;100979.56;4924482;28;45169;-60
2022/08/04 00:42:28;;;;;;;;;0.50;0.50;;;;;28.57;41.27;100977.66;4923505;28;46108;-59
2022/08/04 00:45:03;;;;;;;;;2.00;1.00;;;;;28.55;41.42;100982.47;4923133;28;45774;-60
2022/08/04 00:47:39;;;;;;;;;0.50;0.25;;;;;28.53;41.42;100987.25;4923938;28;45295;-59
2022/08/04 00:50:49;;;;;;;;;1.75;1.75;;;;;28.53;42.04;100983.72;4923549;28;45484;-59
2022/08/04 00:53:29;;;;;;;;;0.75;0.25;;;;;28.45;42.27;100981.19;4920743;28;45379;-61
2022/08/04 00:56:31;;;;;;;;;2.50;0.25;;;;;28.44;41.78;100974.91;4923574;28;45699;-60
2022/08/04 00:59:09;;;;;;;;;2.25;0.50;;;;;28.43;42.16;100977.81;4923017;28;45359;-61
2022/08/04 01:01:56;;;;;;;;;2.75;1.25;;;;;28.40;42.69;100972.81;4922598;28;45448;-60
2022/08/04 01:04:53;;;;;;;;;2.00;2.00;;;;;28.38;42.68;100975.72;4920657;28;45520;-61
2022/08/04 01:08:02;;;;;;;;;2.00;0.00;;;;;28.31;42.53;100969.44;4922869;28;45421;-59
2022/08/04 01:10:37;;;;;;;;;2.00;1.50;;;;;28.27;42.75;100979.78;4923078;28;45248;-61
2022/08/04 01:13:10;;;;;;;;;2.50;0.75;;;;;28.16;43.04;100979.53;4920141;28;45350;-60
2022/08/04 01:15:53;;;;;;;;;3.00;2.00;;;;;28.07;42.96;100987.00;4922244;28;45397;-60
2022/08/04 01:18:42;;;;;;;;;3.00;2.00;;;;;27.97;43.51;100979.22;4920299;28;45414;-60
2022/08/04 01:21:30;;;;;;;;;1.25;1.00;;;;;27.91;43.47;100980.03;4921134;28;45328;-60
2022/08/04 01:24:20;;;;;;;;;3.00;1.25;;;;;27.85;43.57;100978.09;4923457;28;45231;-61
2022/08/04 01:26:54;;;;;;;;;2.00;2.00;;;;;27.85;44.00;100974.56;4937159;28;46451;-60
2022/08/04 01:29:25;;;;;;;;;4.00;3.00;;;;;27.83;44.12;100976.63;4922945;28;45374;-60
2022/08/04 01:32:01;;;;;;;;;3.00;3.00;;;;;27.79;44.08;100977.00;4923327;28;45497;-59
2022/08/04 09:28:01;;;;;;;;;1.75;0.50;;;;;26.24;51.01;101140.53;5124555;23;45617;-61
2022/08/04 09:30:53;;;;;;;;;1.25;1.25;;;;;26.26;50.78;101145.75;4914656;28;45365;-63
2022/08/04 09:33:38;;;;;;;;;1.00;1.00;;;;;26.30;51.16;101147.88;4913589;28;45501;-62
2022/08/04 09:36:08;;;;;;;;;2.00;1.00;;;;;26.32;50.90;101158.50;4910208;28;45595;-62
2022/08/04 09:39:03;;;;;;;;;1.50;1.50;;;;;26.39;51.14;101165.72;4914317;28;45262;-62
2022/08/04 09:41:50;;;;;;;;;4.50;2.00;;;;;26.43;50.95;101169.72;4901671;28;45421;-62
2022/08/04 09:44:28;;;;;;;;;2.00;1.00;;;;;26.49;51.00;101162.75;4915460;28;45396;-62
2022/08/04 09:47:16;;;;;;;;;1.00;1.00;;;;;26.52;50.83;101162.38;4916857;28;45561;-62
2022/08/04 09:49:54;;;;;;;;;4.25;1.00;;;;;26.57;50.83;101167.25;4917416;28;45657;-61
2022/08/04 09:52:41;;;;;;;;;6.00;4.50;;;;;26.60;50.79;101158.75;4917088;28;47459;-62
2022/08/04 09:55:29;;;;;;;;;2.00;2.00;;;;;26.59;50.94;101154.38;4915883;28;45456;-60
2022/08/04 09:58:27;;;;;;;;;3.00;0.50;;;;;26.58;50.88;101148.13;4919241;28;45578;-61
2022/08/04 10:01:01;;;;;;;;;1.00;1.00;;;;;26.63;50.84;101151.13;4917750;28;45335;-62
2022/08/04 10:03:32;;;;;;;;;5.25;2.00;;;;;26.70;51.05;101153.91;4915994;28;45867;-61
2022/08/04 10:06:20;;;;;;;;;1.50;1.50;;;;;26.72;50.65;101157.28;4916489;28;45372;-61
2022/08/04 10:09:39;;;;;;;;;1.00;1.00;;;;;26.78;50.83;101152.97;4916081;28;45412;-62
2022/08/04 10:12:30;;;;;;;;;2.25;2.25;;;;;26.78;50.70;101150.25;4917255;28;45271;-63
2022/08/04 10:15:18;;;;;;;;;0.25;0.25;;;;;26.79;50.62;101151.97;4920602;28;45330;-61
2022/08/04 10:17:55;;;;;;;;;3.75;1.00;;;;;26.81;50.48;101149.91;4914726;28;45477;-60
2022/08/04 10:20:44;;;;;;;;;1.25;0.50;;;;;26.80;50.55;101151.78;4916742;28;45259;-60
2022/08/04 10:23:28;;;;;;;;;1.50;1.00;;;;;26.78;50.87;101150.25;4918467;28;45334;-60
2022/08/04 10:26:28;;;;;;;;;1.75;1.00;;;;;26.77;50.69;101146.72;4918478;28;45792;-60
2022/08/04 10:29:25;;;;;;;;;2.50;1.00;;;;;26.81;50.89;101149.91;4920029;28;45377;-59
2022/08/04 10:32:03;;;;;;;;;0.75;0.00;;;;;26.81;50.88;101147.22;4918250;28;45420;-61
2022/08/04 10:34:39;;;;;;;;;2.00;1.00;;;;;26.84;50.90;101144.97;4918335;28;45443;-61
2022/08/04 10:37:23;;;;;;;;;1.00;1.00;;;;;26.95;51.11;101151.78;4919433;28;46129;-60
2022/08/04 10:43:20;;;;;;;;;1.75;1.00;;;;;27.15;50.71;101144.75;4914699;28;45338;-60
2022/08/04 10:46:16;;;;;;;;;1.75;1.75;;;;;27.30;50.40;101141.19;4900256;28;45179;-61
2022/08/04 10:49:02;;;;;;;;;46.75;36.75;;;;;27.36;50.27;101130.44;4915711;28;46150;-60
2022/08/04 10:51:40;;;;;;;;;2.25;0.75;;;;;27.38;49.99;101130.25;4918897;28;45375;-60
2022/08/04 10:54:10;;;;;;;;;2.00;1.00;;;;;27.43;50.19;101125.94;4915060;28;45274;-60
2022/08/04 10:56:50;;;;;;;;;1.75;0.00;;;;;27.45;49.64;101125.75;4918427;28;45542;-61
2022/08/04 10:59:23;;;;;;;;;0.50;0.00;;;;;27.47;49.96;101126.41;4914944;28;45437;-59
2022/08/04 11:01:54;;;;;;;;;2.25;1.00;;;;;27.53;49.86;101125.63;4916050;28;45456;-60
2022/08/04 11:04:40;;;;;;;;;0.25;0.25;;;;;27.71;49.86;101136.88;4918335;28;45179;-61
2022/08/04 11:07:07;;;;;;;;;4.00;1.00;;;;;27.90;49.28;101127.28;4915312;28;45258;-60
2022/08/04 11:09:33;;;;;;;;;1.00;1.00;;;;;27.99;49.61;101125.25;4917212;28;45427;-61
2022/08/04 11:12:08;;;;;;;;;1.25;1.00;;;;;28.08;48.73;101127.63;4917805;28;45347;-62
2022/08/04 11:14:49;;;;;;;;;0.50;0.50;;;;;28.14;48.91;101128.72;4915792;28;45604;-60
2022/08/04 11:17:28;;;;;;;;;3.50;0.25;;;;;28.18;49.11;101135.41;4918187;28;45513;-61
2022/08/04 11:20:18;;;;;;;;;0.25;0.25;;;;;28.24;48.83;101131.91;4917780;28;46060;-61
2022/08/04 11:22:51;;;;;;;;;2.25;1.25;;;;;28.32;48.44;101136.38;4916549;28;45408;-61
2022/08/04 11:25:27;;;;;;;;;1.00;1.00;;;;;28.35;47.90;101134.09;4916310;28;45323;-63
2022/08/04 11:28:16;;;;;;;;;2.25;0.75;;;;;28.43;48.26;101127.69;4913717;28;45329;-62
2022/08/04 11:30:52;;;;;;;;;1.00;1.00;;;;;28.53;48.39;101124.66;4917849;28;45541;-60
2022/08/04 11:33:33;;;;;;;;;2.75;1.75;;;;;28.55;48.07;101128.81;4914236;28;45370;-60
2022/08/04 11:36:06;;;;;;;;;4.50;1.50;;;;;28.59;47.21;101123.84;4916533;28;45313;-62
2022/08/04 11:38:39;;;;;;;;;4.25;2.00;;;;;28.65;47.40;101125.75;4917219;28;45448;-62
2022/08/04 11:41:16;;;;;;;;;5.75;2.00;;;;;28.72;47.79;101123.91;4916812;28;45580;-60
2022/08/04 11:43:47;;;;;;;;;3.00;3.00;;;;;28.74;47.08;101127.25;4915597;28;45313;-62
2022/08/04 11:46:22;;;;;;;;;5.50;1.00;;;;;28.78;47.03;101127.69;4916665;28;45425;-62
2022/08/04 11:48:57;;;;;;;;;1.25;1.25;;;;;28.82;46.90;101128.97;4914009;28;45490;-60
2022/08/04 11:51:26;;;;;;;;;1.25;0.50;;;;;28.87;46.99;101126.50;4916126;28;45627;-61
2022/08/04 11:53:51;;;;;;;;;3.00;2.00;;;;;28.91;47.61;101130.50;4916136;28;45520;-60
2022/08/04 11:56:17;;;;;;;;;3.75;3.50;;;;;29.03;46.98;101125.34;4915407;28;45317;-61
2022/08/04 11:58:43;;;;;;;;;4.00;3.00;;;;;29.15;46.53;101132.72;4914799;28;45334;-62
2022/08/04 12:01:26;;;;;;;;;4.00;2.00;;;;;29.28;46.57;101133.78;4916597;28;46394;-62
2022/08/04 12:04:17;;;;;;;;;2.75;2.75;;;;;29.38;46.21;101129.63;4916945;28;45547;-60
2022/08/04 12:07:02;;;;;;;;;1.00;1.00;;;;;29.42;46.06;101130.91;4915718;28;45316;-59
2022/08/04 12:09:43;;;;;;;;;2.00;2.00;;;;;29.41;46.50;101131.09;4914264;28;45258;-59
2022/08/04 12:12:26;;;;;;;;;25.25;23.00;;;;;29.40;46.48;101127.56;4914273;28;46287;-61
2022/08/04 12:15:17;;;;;;;;;6.50;5.00;;;;;29.28;46.04;101126.47;4916004;28;45496;-61
2022/08/04 12:17:57;;;;;;;;;2.50;2.50;;;;;29.27;46.49;101124.78;4917223;28;45241;-58
2022/08/04 12:20:26;;;;;;;;;4.75;4.50;;;;;29.42;46.04;101130.06;4914854;28;45494;-60
2022/08/04 12:22:54;;;;;;;;;5.25;3.00;;;;;29.57;46.30;101135.34;4915909;28;45574;-60
2022/08/04 12:25:31;;;;;;;;;4.00;3.25;;;;;29.71;45.87;101128.91;4916887;28;45460;-60
2022/08/04 12:28:03;;;;;;;;;3.00;2.00;;;;;29.83;45.66;101113.66;4915538;28;45485;-60
2022/08/04 12:30:35;;;;;;;;;4.00;2.00;;;;;29.94;45.23;101117.59;4915964;28;45409;-60
2022/08/04 12:33:09;;;;;;;;;3.00;2.00;;;;;30.00;45.66;101120.31;4914718;28;46033;-60
2022/08/04 12:35:57;;;;;;;;;5.50;2.00;;;;;30.13;44.87;101115.97;4918182;28;45421;-60
2022/08/04 12:38:26;;;;;;;;;4.75;3.00;;;;;30.22;45.03;101114.72;4918622;28;45416;-60
2022/08/04 12:40:58;;;;;;;;;5.00;3.25;;;;;30.32;44.75;101114.28;4916447;28;45338;-60
2022/08/04 12:43:33;;;;;;;;;4.50;2.00;;;;;30.37;44.19;101115.31;4911128;28;45911;-60
2022/08/04 12:46:02;;;;;;;;;1.50;1.25;;;;;30.41;44.54;101111.09;4916378;28;45358;-60
2022/08/04 12:48:31;;;;;;;;;5.50;3.25;;;;;30.40;43.79;101114.03;4912313;28;45409;-60
2022/08/04 12:50:58;;;;;;;;;5.50;2.25;;;;;30.42;44.20;101112.81;4914876;28;45367;-60
2022/08/04 12:53:37;;;;;;;;;2.00;2.00;;;;;30.48;43.95;101114.66;4913912;28;45518;-60
2022/08/04 12:56:05;;;;;;;;;2.00;1.00;;;;;30.47;44.16;101110.28;4915546;28;45351;-60
2022/08/04 12:58:37;;;;;;;;;2.25;1.75;;;;;30.51;43.88;101118.84;4915372;28;45366;-60
2022/08/04 13:01:06;;;;;;;;;3.75;1.50;;;;;30.57;43.96;101118.84;4914525;28;45552;-60
2022/08/04 13:03:44;;;;;;;;;4.00;2.00;;;;;30.63;44.16;101110.84;4916056;28;45427;-59
2022/08/04 13:06:12;;;;;;;;;5.50;3.00;;;;;30.65;44.16;101106.91;4915478;28;45551;-60
2022/08/04 13:08:41;;;;;;;;;4.75;2.00;;;;;30.71;43.87;101105.22;4914284;28;45462;-59
2022/08/04 13:11:10;;;;;;;;;2.25;2.25;;;;;30.72;43.63;101102.28;4915046;28;45247;-60
2022/08/04 13:13:37;;;;;;;;;4.25;2.00;;;;;30.73;43.34;101108.53;4912174;28;46419;-60
2022/08/04 13:16:06;;;;;;;;;4.75;1.50;;;;;30.76;43.61;101108.13;4914433;28;45462;-60
2022/08/04 13:18:38;;;;;;;;;5.75;3.50;;;;;30.75;43.39;101110.03;4915305;28;45376;-60
2022/08/04 13:21:11;;;;;;;;;2.75;2.50;;;;;30.73;43.42;101105.81;4914213;28;45322;-60
2022/08/04 13:23:38;;;;;;;;;3.00;2.50;;;;;30.75;43.27;101118.19;4914272;28;45401;-60
2022/08/04 13:26:05;;;;;;;;;6.00;3.50;;;;;30.84;43.44;101113.34;4914672;28;45249;-60
2022/08/04 13:28:33;;;;;;;;;4.25;3.00;;;;;30.90;43.17;101108.94;4915965;28;45309;-59
2022/08/04 13:31:01;;;;;;;;;3.75;2.50;;;;;30.91;43.12;101100.53;4916974;28;45618;-59
2022/08/04 13:33:48;;;;;;;;;3.00;1.25;;;;;30.97;43.21;101110.56;4914750;28;46580;-59
2022/08/04 13:36:16;;;;;;;;;3.50;1.25;;;;;31.04;42.99;101099.63;4916490;28;45527;-59
2022/08/04 13:38:52;;;;;;;;;4.75;4.00;;;;;31.07;42.65;101112.81;4915240;28;45433;-59
2022/08/04 13:41:19;;;;;;;;;2.00;1.00;;;;;31.06;42.59;101098.38;4913919;28;45470;-59
2022/08/04 13:43:53;;;;;;;;;5.50;3.75;;;;;31.12;42.64;101097.53;4913727;28;46183;-59
2022/08/04 13:46:24;;;;;;;;;3.25;3.00;;;;;31.13;42.53;101093.75;4914110;28;45301;-59
2022/08/04 13:48:51;;;;;;;;;4.00;2.50;;;;;31.16;42.57;101088.91;4912418;28;45345;-59
2022/08/04 13:51:19;;;;;;;;;3.00;3.00;;;;;31.17;42.17;101091.41;4914689;28;45570;-59
2022/08/04 13:53:55;;;;;;;;;2.00;2.00;;;;;31.15;42.07;101093.53;4912841;28;46094;-59
2022/08/04 13:56:21;;;;;;;;;2.50;2.00;;;;;31.15;42.49;101090.78;4910415;28;45424;-60
2022/08/04 13:58:53;;;;;;;;;2.00;2.00;;;;;31.19;42.08;101093.91;4913250;28;45263;-60
2022/08/04 14:01:22;;;;;;;;;4.25;2.00;;;;;31.19;41.93;101093.91;4915354;28;45436;-60
2022/08/04 14:03:47;;;;;;;;;2.75;2.50;;;;;31.19;41.94;101092.00;4913961;28;45556;-59
2022/08/04 14:06:24;;;;;;;;;3.00;2.00;;;;;31.16;41.53;101100.63;4913555;28;45411;-60
2022/08/04 14:08:58;;;;;;;;;3.75;2.50;;;;;31.16;42.04;101092.47;4912291;28;45318;-60
2022/08/04 14:11:36;;;;;;;;;4.50;2.00;;;;;31.06;41.67;101094.81;4916046;28;45568;-60
2022/08/04 14:14:24;;;;;;;;;5.00;1.50;;;;;31.02;41.64;101088.97;4910315;28;45381;-60
2022/08/04 14:17:00;;;;;;;;;3.00;3.00;;;;;30.95;41.96;101087.31;4913392;28;45511;-62
2022/08/04 14:20:00;;;;;;;;;2.50;2.00;;;;;30.83;41.57;101082.56;4912333;28;45287;-65
2022/08/04 14:22:25;;;;;;;;;2.75;2.75;;;;;30.80;41.63;101080.28;4914498;28;45422;-64
2022/08/04 14:25:06;;;;;;;;;4.00;3.00;;;;;30.80;41.71;101074.84;4913748;28;45347;-62
2022/08/04 14:27:48;;;;;;;;;3.00;1.50;;;;;30.77;42.00;101085.31;4911853;28;45535;-62
2022/08/04 14:30:34;;;;;;;;;2.50;2.25;;;;;30.78;41.87;101070.66;4917499;28;45256;-64
2022/08/04 14:33:03;;;;;;;;;3.00;3.00;;;;;30.93;42.27;101075.84;4916822;28;45479;-63
2022/08/04 14:35:31;;;;;;;;;2.75;2.00;;;;;31.02;42.06;101067.19;4918593;28;45489;-63
2022/08/04 14:38:17;;;;;;;;;3.25;2.25;;;;;31.06;41.90;101073.88;4917079;28;45281;-63
2022/08/04 14:40:44;;;;;;;;;2.00;2.00;;;;;31.10;41.81;101075.09;4916659;28;45266;-64
2022/08/04 14:43:16;;;;;;;;;4.00;3.00;;;;;31.18;41.65;101068.56;4916884;28;45441;-64
2022/08/04 14:45:44;;;;;;;;;4.50;3.50;;;;;31.28;41.79;101087.19;4916754;28;46144;-64
2022/08/04 14:48:16;;;;;;;;;3.00;3.00;;;;;31.32;41.53;101078.38;4917062;28;45702;-63
2022/08/04 14:50:44;;;;;;;;;2.25;2.25;;;;;31.34;41.81;101081.69;4915651;28;45484;-62
2022/08/04 14:53:14;;;;;;;;;3.25;3.00;;;;;31.29;41.61;101075.25;4913757;28;45463;-63
2022/08/04 14:55:44;;;;;;;;;4.50;1.75;;;;;31.21;42.07;101079.03;4918282;28;45325;-62
2022/08/04 14:58:22;;;;;;;;;3.50;2.50;;;;;31.08;41.51;101079.94;4916908;28;45414;-62
2022/08/04 15:00:49;;;;;;;;;5.25;3.75;;;;;31.03;41.54;101087.91;4914326;28;45418;-61
2022/08/04 15:03:17;;;;;;;;;2.00;2.00;;;;;30.98;41.46;101078.75;4920665;28;45299;-61
2022/08/04 15:05:44;;;;;;;;;2.00;2.00;;;;;30.92;41.58;101085.88;4916298;28;45545;-58
2022/08/04 15:08:14;;;;;;;;;4.00;4.00;;;;;30.89;41.89;101093.63;4917240;28;45400;-61
2022/08/04 15:10:40;;;;;;;;;3.00;2.75;;;;;30.82;41.80;101091.78;4916292;28;45473;-62
2022/08/04 15:13:07;;;;;;;;;4.00;3.00;;;;;30.78;41.72;101090.53;4916005;28;45204;-61
2022/08/04 15:15:33;;;;;;;;;5.75;3.00;;;;;30.76;41.58;101099.97;4915975;28;46177;-61
2022/08/04 15:17:59;;;;;;;;;4.25;3.00;;;;;30.73;41.63;101103.97;4918154;28;45297;-61
2022/08/04 15:20:25;;;;;;;;;2.50;2.50;;;;;30.72;41.58;101105.00;4915719;28;45468;-61
2022/08/04 15:22:51;;;;;;;;;5.00;4.00;;;;;30.71;41.61;101110.66;4915813;28;45414;-61
2022/08/04 15:25:17;;;;;;;;;2.75;2.25;;;;;30.69;41.52;101110.88;4917823;28;46063;-61
2022/08/04 15:27:47;;;;;;;;;3.50;2.25;;;;;30.67;41.53;101109.44;4915373;28;45551;-61
2022/08/04 15:30:16;;;;;;;;;4.50;2.75;;;;;30.65;41.47;101108.75;4922064;28;45333;-61
2022/08/04 15:32:53;;;;;;;;;3.00;3.00;;;;;30.60;41.01;101119.47;4915780;28;45579;-62
2022/08/04 15:35:23;;;;;;;;;5.00;4.00;;;;;30.55;41.38;101125.53;4917106;28;46081;-62
2022/08/04 15:38:13;;;;;;;;;6.50;5.00;;;;;30.47;40.99;101115.72;4913825;28;45432;-61
2022/08/04 15:40:47;;;;;;;;;3.00;3.00;;;;;30.41;41.17;101121.97;4917480;28;45459;-64
2022/08/04 15:43:49;;;;;;;;;8.25;7.75;;;;;30.36;41.34;101120.97;4916819;28;45461;-64
2022/08/04 15:46:19;;;;;;;;;8.50;7.00;;;;;30.29;41.22;101124.53;4914233;28;45346;-64
2022/08/04 15:48:45;;;;;;;;;2.75;2.00;;;;;30.23;41.53;101132.69;4915339;28;45415;-63
2022/08/04 15:51:11;;;;;;;;;2.75;2.75;;;;;30.16;41.77;101140.00;4915341;28;45467;-62
2022/08/04 15:53:39;;;;;;;;;3.00;1.00;;;;;30.07;41.78;101144.78;4916948;28;45340;-72
2022/08/04 15:56:23;;;;;;;;;2.00;2.00;;;;;30.00;41.82;101152.94;4915466;28;46374;-60
2022/08/04 15:58:51;;;;;;;;;1.75;1.75;;;;;29.95;41.81;101165.50;4913501;28;45445;-60
2022/08/04 16:01:18;;;;;;;;;3.00;3.00;;;;;29.88;42.30;101187.22;4915870;28;45468;-61
2022/08/04 16:03:50;;;;;;;;;5.00;2.00;;;;;29.80;43.08;101184.69;4915637;28;45664;-50
2022/08/04 16:06:16;;;;;;;;;1.00;1.00;;;;;29.64;43.67;101193.22;4918319;28;46145;-47
2022/08/04 16:08:50;;;;;;;;;3.00;3.00;;;;;29.39;44.46;101195.63;4915264;28;45369;-48
2022/08/04 16:11:21;;;;;;;;;4.75;4.00;;;;;29.19;44.20;101203.66;4915983;28;45469;-50
2022/08/04 16:14:08;;;;;;;;;8.00;8.00;;;;;29.02;44.82;101205.06;4915553;28;45270;-51
2022/08/04 16:16:40;;;;;;;;;6.00;5.00;;;;;28.94;45.42;101226.91;4913555;28;45465;-48
2022/08/04 16:19:08;;;;;;;;;3.75;3.75;;;;;28.96;45.84;101212.09;4917339;28;45382;-46
2022/08/04 16:21:50;;;;;;;;;3.00;3.00;;;;;28.98;45.70;101201.06;4912604;28;45877;-49
2022/08/04 16:24:21;;;;;;;;;3.75;3.50;;;;;28.98;45.59;101209.19;4916702;28;45424;-48
2022/08/04 16:26:49;;;;;;;;;5.00;4.00;;;;;28.94;46.47;101195.19;4914918;28;46010;-44
2022/08/04 16:29:33;;;;;;;;;6.50;4.50;;;;;28.90;46.75;101178.47;4916025;28;45454;-47
2022/08/04 16:32:11;;;;;;;;;6.00;6.00;;;;;28.85;47.07;101156.53;4915321;28;45444;-46
2022/08/04 16:34:48;;;;;;;;;3.00;3.00;;;;;28.78;46.71;101144.81;4914185;28;45343;-45
2022/08/04 16:37:16;;;;;;;;;5.00;3.25;;;;;28.73;47.77;101150.00;4918375;28;45279;-47
2022/08/04 16:39:42;;;;;;;;;4.75;3.25;;;;;28.72;47.54;101128.50;4913086;28;45313;-48
2022/08/04 16:42:26;;;;;;;;;5.25;3.25;;;;;28.65;47.95;101121.16;4914865;28;45437;-48
2022/08/04 16:45:12;;;;;;;;;2.75;2.75;;;;;28.60;47.44;101110.09;4915467;28;45546;-51
2022/08/04 16:47:46;;;;;;;;;6.25;5.25;;;;;28.55;47.67;101101.72;4917032;28;46293;-48
2022/08/04 16:50:17;;;;;;;;;5.25;4.00;;;;;28.48;47.66;101092.72;4915407;28;46665;-49
2022/08/04 16:52:45;;;;;;;;;4.75;4.75;;;;;28.48;48.29;101100.00;4914201;28;45453;-46
2022/08/04 16:55:13;;;;;;;;;10.00;5.00;;;;;28.46;48.30;101099.38;4915928;28;45379;-45
2022/08/04 16:57:39;;;;;;;;;4.00;4.00;;;;;28.43;48.38;101097.03;4913397;28;45269;-46
2022/08/04 17:00:07;;;;;;;;;6.75;5.25;;;;;28.39;48.75;101103.91;4914938;28;45211;-46
2022/08/04 17:02:33;;;;;;;;;5.50;5.50;;;;;28.32;49.13;101088.44;4913776;28;45450;-45
2022/08/04 17:04:58;;;;;;;;;4.00;3.50;;;;;28.29;49.36;101088.00;4913415;28;45553;-47
2022/08/04 17:07:24;;;;;;;;;6.00;4.00;;;;;28.30;49.51;101085.09;4916717;28;45463;-46
2022/08/04 17:09:50;;;;;;;;;5.75;4.25;;;;;28.28;48.71;101078.16;4914021;28;45425;-48
2022/08/04 17:12:16;;;;;;;;;5.25;3.75;;;;;28.25;49.21;101078.56;4915753;28;45392;-49
2022/08/04 17:14:42;;;;;;;;;6.50;3.50;;;;;28.19;48.87;101082.91;4914864;28;45334;-47
2022/08/04 17:17:07;;;;;;;;;4.75;4.50;;;;;28.10;48.94;101075.97;4914775;28;47327;-46
2022/08/04 17:19:33;;;;;;;;;4.50;3.50;;;;;28.03;49.01;101069.66;4913367;28;45486;-46
2022/08/04 17:22:07;;;;;;;;;4.50;3.25;;;;;28.04;49.14;101071.31;4918657;28;45544;-45
2022/08/04 17:24:35;;;;;;;;;4.50;4.50;;;;;27.95;49.46;101067.09;4915457;28;45400;-48
2022/08/04 17:27:01;;;;;;;;;5.00;5.00;;;;;27.87;49.12;101068.06;4914282;28;45483;-46
2022/08/04 17:29:30;;;;;;;;;5.50;5.00;;;;;27.79;49.06;101073.63;4914219;28;45474;-49
2022/08/04 17:31:56;;;;;;;;;7.25;4.75;;;;;27.73;49.24;101063.63;4915600;28;45321;-48
2022/08/04 17:34:24;;;;;;;;;6.25;4.75;;;;;27.69;49.27;101075.84;4911516;28;45590;-47
2022/08/04 17:36:50;;;;;;;;;6.25;5.25;;;;;27.74;49.72;101109.44;4919118;28;45468;-48
2022/08/04 17:39:23;;;;;;;;;6.00;4.00;;;;;27.80;50.17;101105.91;4917164;28;45551;-50
2022/08/04 17:41:55;;;;;;;;;4.75;4.00;;;;;27.89;50.25;101103.09;4914082;28;45440;-48
2022/08/04 17:44:34;;;;;;;;;7.75;6.00;;;;;27.90;49.85;101102.06;4916099;28;45317;-45
2022/08/04 17:47:07;;;;;;;;;6.75;4.25;;;;;27.85;50.21;101102.66;4913849;28;45295;-47
2022/08/04 17:49:32;;;;;;;;;7.75;5.50;;;;;27.85;50.11;101108.06;4912963;28;45387;-51
2022/08/04 17:52:02;;;;;;;;;7.25;5.75;;;;;27.81;50.54;101113.03;4916538;28;45357;-52
2022/08/04 17:54:36;;;;;;;;;5.00;5.00;;;;;27.80;51.13;101121.34;4913535;28;45354;-48
2022/08/04 17:57:19;;;;;;;;;6.00;3.75;;;;;27.77;50.89;101117.16;4915662;28;45557;-46
2022/08/04 17:59:47;;;;;;;;;5.25;4.75;;;;;27.75;51.18;101115.69;4916084;28;45280;-46
2022/08/04 18:02:21;;;;;;;;;5.50;4.25;;;;;27.72;50.88;101126.88;4915010;28;45398;-46
2022/08/04 18:04:46;;;;;;;;;6.00;4.75;;;;;27.67;51.26;101132.06;4914712;28;45452;-45
2022/08/04 18:07:15;;;;;;;;;12.00;11.50;;;;;27.67;51.64;101126.66;4913631;28;46184;-48
2022/08/04 18:09:50;;;;;;;;;7.50;6.50;;;;;27.71;51.65;101123.34;4918064;28;45409;-48
2022/08/04 18:12:25;;;;;;;;;10.75;9.50;;;;;27.71;51.82;101131.47;4915807;28;45411;-48
2022/08/04 18:14:56;;;;;;;;;16.25;12.25;;;;;27.68;52.13;101129.16;4917174;28;45397;-48
2022/08/04 18:17:41;;;;;;;;;11.50;9.00;;;;;27.67;51.90;101135.59;4917221;28;45993;-45
2022/08/04 18:20:12;;;;;;;;;8.00;7.00;;;;;27.59;52.01;101130.28;4918561;28;45350;-46
2022/08/04 18:22:40;;;;;;;;;10.25;9.00;;;;;27.55;51.82;101137.94;4920383;28;45454;-47
2022/08/04 18:25:07;;;;;;;;;7.25;6.00;;;;;27.54;52.06;101138.13;4915803;28;45555;-46
2022/08/04 18:27:33;;;;;;;;;8.25;7.75;;;;;27.50;51.88;101134.97;4918011;28;46287;-45
2022/08/04 18:29:59;;;;;;;;;5.75;5.50;;;;;27.49;52.34;101144.13;4916402;28;45413;-48
2022/08/04 18:32:26;;;;;;;;;7.00;7.00;;;;;27.47;51.93;101140.75;4919429;28;45428;-48
2022/08/04 18:34:52;;;;;;;;;4.75;4.75;;;;;27.49;52.50;101138.72;4914881;28;45382;-46
2022/08/04 18:37:18;;;;;;;;;4.75;3.75;;;;;27.48;52.20;101144.31;4922465;28;45347;-47
2022/08/04 18:39:44;;;;;;;;;5.00;5.00;;;;;27.43;51.98;101147.59;4916741;28;45339;-50
2022/08/04 18:42:10;;;;;;;;;5.00;5.00;;;;;27.43;52.34;101152.19;4918145;28;45342;-46
2022/08/04 18:44:36;;;;;;;;;6.25;5.25;;;;;27.44;52.11;101148.44;4916749;28;45326;-47
2022/08/04 18:47:02;;;;;;;;;6.00;5.00;;;;;27.42;52.26;101151.34;4920539;28;45444;-46
2022/08/04 18:49:28;;;;;;;;;5.50;5.00;;;;;27.41;52.35;101151.50;4915914;28;45370;-45
2022/08/04 18:51:54;;;;;;;;;6.00;4.50;;;;;27.36;52.20;101160.22;4918587;28;45319;-45
2022/08/04 18:54:23;;;;;;;;;6.00;4.25;;;;;27.33;52.17;101163.28;4921239;28;45464;-45
2022/08/04 18:56:51;;;;;;;;;6.75;5.00;;;;;27.28;52.57;101163.03;4921099;28;46349;-50
2022/08/04 18:59:16;;;;;;;;;5.00;5.00;;;;;27.19;51.97;101170.41;4918267;28;45416;-48
2022/08/04 19:01:42;;;;;;;;;6.00;4.25;;;;;27.06;52.23;101180.22;4923457;28;45401;-49
2022/08/04 19:04:09;;;;;;;;;1742.20;1033.40;;;;;26.95;52.53;101176.94;4917257;28;45494;-49
2022/08/04 19:06:35;;;;;;;;;1353.80;887.00;;;;;27.10;52.70;101186.94;4917319;28;46282;-46
2022/08/04 19:09:04;;;;;;;;;580.40;409.00;;;;;27.23;52.31;101173.56;4920153;28;45338;-50
2022/08/04 19:11:32;;;;;;;;;41.75;34.75;;;;;27.21;52.03;101181.03;4918698;28;45266;-48
2022/08/04 19:13:58;;;;;;;;;339.00;244.33;;;;;27.08;51.60;101176.28;4917727;28;45315;-46
2022/08/04 19:16:24;;;;;;;;;135.33;91.67;;;;;27.04;51.79;101177.72;4919983;28;45354;-46
2022/08/04 19:18:50;;;;;;;;;143.67;97.67;;;;;27.09;52.09;101177.13;4915372;28;45640;-48
2022/08/04 19:21:15;;;;;;;;;3.00;3.00;;;;;27.05;51.45;101173.97;4919173;28;45550;-45
2022/08/04 19:23:41;;;;;;;;;6.00;4.75;;;;;26.87;51.42;101178.91;4916866;28;45449;-48
2022/08/04 19:26:06;;;;;;;;;1.25;1.25;;;;;26.56;50.83;101193.44;4921866;28;46148;-45
2022/08/04 19:28:34;;;;;;;;;3.00;3.00;;;;;26.25;50.42;101207.03;4917413;28;45463;-48
2022/08/04 19:31:01;;;;;;;;;3.50;2.50;;;;;26.07;51.00;101199.25;4917624;28;45235;-46
2022/08/04 19:33:26;;;;;;;;;2.00;1.50;;;;;26.03;51.30;101216.81;4918285;28;45504;-52
2022/08/04 19:35:52;;;;;;;;;3.00;2.00;;;;;25.91;51.19;101214.69;4919594;28;45530;-51
2022/08/04 19:38:19;;;;;;;;;4.00;3.00;;;;;25.73;51.04;101210.44;4918473;28;45454;-53
2022/08/04 19:40:45;;;;;;;;;2.50;2.50;;;;;25.69;51.23;101216.34;4920789;28;45757;-50
2022/08/04 19:43:10;;;;;;;;;5.00;3.25;;;;;25.61;51.21;101212.69;4917868;28;45651;-49
2022/08/04 19:45:36;;;;;;;;;2.75;2.75;;;;;25.67;51.13;101213.81;4913719;28;45581;-47
2022/08/04 19:48:03;;;;;;;;;3.25;2.50;;;;;25.66;50.94;101208.59;4918290;28;45532;-49
2022/08/04 19:50:29;;;;;;;;;3.50;2.25;;;;;25.60;51.03;101208.31;4920794;28;45283;-51
2022/08/04 19:52:54;;;;;;;;;3.75;2.50;;;;;25.40;50.79;101206.22;4917488;28;45552;-51